createdAt,value
2019-05-09T00:00:07.879Z,100.00
2019-05-09T00:02:44.204Z,100.00
2019-05-09T00:05:17.761Z,100.00
2019-05-09T00:07:53.186Z,100.00
2019-05-09T00:10:38.603Z,100.00
2019-05-09T00:13:03.281Z,100.00
2019-05-09T00:15:37.205Z,100.00
2019-05-09T00:18:10.511Z,100.00
2019-05-09T00:20:58.323Z,100.00
2019-05-09T00:23:33.211Z,100.00
2019-05-09T00:26:05.913Z,100.00
2019-05-09T00:28:43.991Z,100.00
2019-05-09T00:31:26.500Z,100.00
2019-05-09T00:34:04.144Z,100.00
2019-05-09T00:36:38.375Z,100.00
2019-05-09T00:39:13.350Z,100.00
2019-05-09T00:41:47.108Z,100.00
2019-05-09T00:44:25.485Z,100.00
2019-05-09T00:47:08.142Z,100.00
2019-05-09T00:49:43.393Z,100.00
2019-05-09T00:52:19.526Z,100.00
2019-05-09T00:54:53.111Z,100.00
2019-05-09T00:57:36.438Z,100.00
2019-05-09T01:00:14.700Z,100.00
2019-05-09T01:02:48.188Z,100.00
2019-05-09T01:05:19.885Z,100.00
2019-05-09T01:07:53.769Z,100.00
2019-05-09T01:10:27.739Z,100.00
2019-05-09T01:13:03.450Z,100.00
2019-05-09T01:15:36.869Z,100.00
2019-05-09T01:18:10.533Z,100.00
2019-05-09T01:20:44.159Z,100.00
2019-05-09T01:23:17.112Z,100.00
2019-05-09T01:25:49.477Z,100.00
2019-05-09T01:28:23.229Z,100.00
2019-05-09T01:30:56.400Z,100.00
2019-05-09T01:33:44.813Z,100.00
2019-05-09T01:36:17.903Z,100.00
2019-05-09T01:38:51.182Z,100.00
2019-05-09T01:41:30.518Z,100.00
2019-05-09T01:43:59.118Z,100.00
2019-05-09T01:46:33.923Z,100.00
2019-05-09T01:49:06.512Z,100.00
2019-05-09T01:51:38.877Z,100.00
2019-05-09T01:54:13.124Z,100.00
2019-05-09T01:56:45.788Z,100.00
2019-05-09T01:59:18.624Z,100.00
2019-05-09T02:01:51.013Z,100.00
2019-05-09T02:04:24.330Z,100.00
2019-05-09T02:06:57.117Z,100.00
2019-05-09T02:09:29.489Z,100.00
2019-05-09T02:12:03.812Z,100.00
2019-05-09T02:14:43.748Z,100.00
2019-05-09T02:17:27.088Z,100.00
2019-05-09T02:19:59.455Z,100.00
2019-05-09T02:22:35.080Z,100.00
2019-05-09T02:25:10.918Z,100.00
2019-05-09T02:27:44.259Z,100.00
2019-05-09T02:30:16.369Z,100.00
2019-05-09T02:32:49.814Z,100.00
2019-05-09T02:35:23.318Z,100.00
2019-05-09T02:37:58.715Z,100.00
2019-05-09T02:40:33.515Z,100.00
2019-05-09T02:43:09.688Z,100.00
2019-05-09T02:45:51.844Z,100.00
2019-05-09T02:48:21.389Z,100.00
2019-05-09T02:50:54.516Z,100.00
2019-05-09T02:53:28.879Z,100.00
2019-05-09T02:56:01.647Z,100.00
2019-05-09T02:58:43.099Z,100.00
2019-05-09T03:01:39.102Z,100.00
2019-05-09T03:04:12.346Z,100.00
2019-05-09T03:06:48.909Z,100.00
2019-05-09T03:09:20.681Z,100.00
2019-05-09T03:11:52.897Z,100.00
2019-05-09T03:14:28.428Z,100.00
2019-05-09T03:16:59.906Z,100.00
2019-05-09T03:19:32.280Z,100.00
2019-05-09T03:22:09.301Z,100.00
2019-05-09T03:24:43.562Z,100.00
2019-05-09T03:27:23.788Z,100.00
2019-05-09T03:29:59.078Z,100.00
2019-05-09T03:32:31.731Z,100.00
2019-05-09T03:35:04.087Z,100.00
2019-05-09T03:37:37.837Z,100.00
2019-05-09T03:40:11.338Z,100.00
2019-05-09T03:42:43.827Z,100.00
2019-05-09T03:45:18.316Z,100.00
2019-05-09T03:47:55.364Z,100.00
2019-05-09T03:50:28.086Z,100.00
2019-05-09T03:53:00.792Z,100.00
2019-05-09T03:55:38.190Z,100.00
2019-05-09T03:58:18.390Z,100.00
2019-05-09T04:00:51.384Z,100.00
2019-05-09T04:03:23.806Z,100.00
2019-05-09T04:06:02.586Z,100.00
2019-05-09T04:08:31.281Z,100.00
2019-05-09T04:11:04.418Z,100.00
2019-05-09T04:13:40.260Z,100.00
2019-05-09T04:16:12.706Z,100.00
2019-05-09T04:18:45.074Z,100.00
2019-05-09T04:21:18.410Z,100.00
2019-05-09T04:23:52.210Z,100.00
2019-05-09T04:26:38.150Z,100.00
2019-05-09T04:29:10.588Z,100.00
2019-05-09T04:31:43.828Z,100.00
2019-05-09T04:34:18.326Z,100.00
2019-05-09T04:36:51.129Z,100.00
2019-05-09T04:39:23.971Z,100.00
2019-05-09T04:42:03.632Z,100.00
2019-05-09T04:44:42.400Z,100.00
2019-05-09T04:47:17.386Z,100.00
2019-05-09T04:49:50.867Z,100.00
2019-05-09T04:52:22.133Z,100.00
2019-05-09T04:54:54.450Z,100.00
2019-05-09T04:57:27.933Z,100.00
2019-05-09T05:00:00.705Z,100.00
2019-05-09T05:02:45.361Z,100.00
2019-05-09T05:05:18.134Z,100.00
2019-05-09T05:07:50.542Z,100.00
2019-05-09T05:10:38.266Z,100.00
2019-05-09T05:13:25.676Z,100.00
2019-05-09T05:15:47.552Z,100.00
2019-05-09T05:18:21.500Z,100.00
2019-05-09T05:20:57.608Z,100.00
2019-05-09T05:23:44.172Z,100.00
2019-05-09T05:26:18.375Z,100.00
2019-05-09T05:28:51.139Z,100.00
2019-05-09T05:31:28.669Z,100.00
2019-05-09T05:34:08.686Z,100.00
2019-05-09T05:36:41.630Z,100.00
2019-05-09T05:39:15.153Z,100.00
2019-05-09T05:41:48.529Z,100.00
2019-05-09T05:44:20.955Z,100.00
2019-05-09T05:47:09.218Z,100.00
2019-05-09T05:49:41.932Z,100.00
2019-05-09T05:52:14.005Z,100.00
2019-05-09T05:54:47.695Z,100.00
2019-05-09T05:57:20.479Z,100.00
2019-05-09T05:59:52.714Z,100.00
2019-05-09T06:02:25.352Z,100.00
2019-05-09T06:04:58.323Z,100.00
2019-05-09T06:07:30.452Z,100.00
2019-05-09T06:10:03.431Z,100.00
2019-05-09T06:12:38.022Z,100.00
2019-05-09T06:15:13.907Z,100.00
2019-05-09T06:17:48.377Z,100.00
2019-05-09T06:20:21.053Z,100.00
2019-05-09T06:22:53.169Z,100.00
2019-05-09T06:25:30.003Z,100.00
2019-05-09T06:28:00.616Z,100.00
2019-05-09T06:30:33.555Z,100.00
2019-05-09T06:33:08.976Z,100.00
2019-05-09T06:35:43.324Z,100.00
2019-05-09T06:38:18.510Z,100.00
2019-05-09T06:40:50.662Z,100.00
2019-05-09T06:43:28.854Z,100.00
2019-05-09T06:46:27.722Z,100.00
2019-05-09T06:49:20.437Z,100.00
2019-05-09T06:51:38.563Z,100.00
2019-05-09T06:54:10.701Z,100.00
2019-05-09T06:56:43.816Z,100.00
2019-05-09T06:59:15.166Z,100.00
2019-05-09T07:01:51.897Z,100.00
2019-05-09T07:04:38.439Z,100.00
2019-05-09T07:07:33.603Z,100.00
2019-05-09T07:10:07.648Z,100.00
2019-05-09T07:12:40.338Z,97.01
2019-05-09T07:15:12.795Z,97.18
2019-05-09T07:17:45.329Z,96.18
2019-05-09T07:20:18.370Z,95.35
2019-05-09T07:22:54.489Z,94.35
2019-05-09T07:25:41.547Z,93.86
2019-05-09T07:28:15.350Z,94.64
2019-05-09T07:31:11.737Z,93.09
2019-05-09T07:33:54.171Z,90.60
2019-05-09T07:36:27.819Z,88.60
2019-05-09T07:39:00.535Z,88.02
2019-05-09T07:41:33.797Z,88.61
2019-05-09T07:44:07.632Z,84.53
2019-05-09T07:47:02.426Z,84.82
2019-05-09T07:49:37.675Z,85.03
2019-05-09T07:52:10.618Z,81.90
2019-05-09T07:54:42.806Z,80.52
2019-05-09T07:57:17.958Z,80.44
2019-05-09T07:59:49.967Z,77.69
2019-05-09T08:02:22.511Z,78.44
2019-05-09T08:04:57.636Z,77.93
2019-05-09T08:07:29.345Z,74.80
2019-05-09T08:10:01.499Z,79.75
2019-05-09T08:12:34.416Z,77.68
2019-05-09T08:15:13.714Z,74.88
2019-05-09T08:17:39.641Z,75.87
2019-05-09T08:20:13.880Z,75.56
2019-05-09T08:22:57.245Z,74.95
2019-05-09T08:25:21.525Z,76.70
2019-05-09T08:27:54.252Z,74.63
2019-05-09T08:30:32.930Z,74.19
2019-05-09T08:33:01.231Z,75.64
2019-05-09T08:35:33.299Z,75.69
2019-05-09T08:38:08.297Z,74.55
2019-05-09T08:40:40.006Z,74.39
2019-05-09T08:43:12.337Z,71.03
2019-05-09T08:45:44.945Z,70.17
2019-05-09T08:48:18.402Z,69.70
2019-05-09T08:50:55.258Z,67.62
2019-05-09T08:53:30.037Z,71.59
2019-05-09T08:56:03.772Z,70.77
2019-05-09T08:58:38.287Z,69.79
2019-05-09T09:01:11.785Z,70.50
2019-05-09T09:03:48.304Z,67.38
2019-05-09T09:06:20.071Z,67.12
2019-05-09T09:08:52.113Z,65.77
2019-05-09T09:11:24.583Z,65.57
2019-05-09T09:13:59.377Z,65.26
2019-05-09T09:16:31.456Z,64.19
2019-05-09T09:19:04.164Z,63.58
2019-05-09T09:21:38.803Z,62.82
2019-05-09T09:24:11.454Z,62.93
2019-05-09T09:26:43.799Z,61.76
2019-05-09T09:29:17.842Z,64.22
2019-05-09T09:31:51.903Z,63.95
2019-05-09T09:34:26.954Z,62.29
2019-05-09T09:37:03.178Z,65.95
2019-05-09T09:39:32.781Z,62.03
2019-05-09T09:42:08.789Z,63.65
2019-05-09T09:44:41.239Z,63.63
2019-05-09T09:47:13.432Z,63.26
2019-05-09T09:49:45.481Z,63.59
2019-05-09T09:52:18.728Z,64.55
2019-05-09T09:54:51.437Z,64.56
2019-05-09T09:57:23.902Z,63.70
2019-05-09T10:00:07.442Z,65.33
2019-05-09T10:02:40.050Z,64.85
2019-05-09T10:05:12.356Z,65.46
2019-05-09T10:07:44.515Z,62.97
2019-05-09T10:10:34.648Z,60.34
2019-05-09T10:13:10.407Z,61.91
2019-05-09T10:16:24.600Z,59.67
2019-05-09T10:19:09.945Z,61.07
2019-05-09T10:21:48.696Z,62.80
2019-05-09T10:24:20.814Z,61.10
2019-05-09T10:27:13.176Z,60.81
2019-05-09T10:29:47.826Z,59.54
2019-05-09T10:32:20.085Z,59.48
2019-05-09T10:34:52.855Z,60.20
2019-05-09T10:37:25.462Z,59.09
2019-05-09T10:39:58.101Z,60.27
2019-05-09T10:42:38.005Z,61.41
2019-05-09T10:45:32.716Z,63.87
2019-05-09T10:48:05.555Z,65.44
2019-05-09T10:50:44.632Z,67.17
2019-05-09T10:53:11.839Z,67.01
2019-05-09T10:55:44.177Z,64.85
2019-05-09T10:58:19.640Z,64.55
2019-05-09T11:00:50.393Z,62.17
2019-05-09T11:03:24.394Z,62.97
2019-05-09T11:16:23.017Z,65.65
2019-05-09T11:29:49.624Z,76.17
2019-05-09T11:37:58.704Z,70.29
2019-05-09T11:42:43.848Z,69.83
2019-05-09T11:56:42.220Z,75.38
2019-05-09T12:05:24.734Z,71.68
2019-05-09T12:38:05.424Z,84.74
2019-05-09T12:45:29.539Z,91.44
2019-05-09T12:48:10.140Z,95.22
2019-05-09T12:50:38.554Z,93.93
2019-05-09T12:53:10.429Z,94.27
2019-05-09T12:55:42.497Z,94.25
2019-05-09T12:58:27.807Z,94.97
2019-05-09T13:01:01.640Z,90.73
2019-05-09T13:03:34.241Z,91.37
2019-05-09T13:06:07.984Z,89.87
2019-05-09T13:08:40.737Z,87.93
2019-05-09T13:11:13.530Z,87.70
2019-05-09T13:13:47.834Z,87.48
2019-05-09T13:16:43.965Z,86.73
2019-05-09T13:19:13.488Z,86.17
2019-05-09T13:21:46.523Z,83.82
2019-05-09T13:24:19.537Z,83.47
2019-05-09T13:26:53.339Z,84.71
2019-05-09T13:29:25.768Z,85.50
2019-05-09T13:31:57.870Z,85.91
2019-05-09T13:34:30.674Z,86.64
2019-05-09T13:37:03.059Z,87.00
2019-05-09T13:39:35.827Z,85.72
2019-05-09T13:42:08.449Z,87.26
2019-05-09T13:44:41.619Z,84.67
2019-05-09T13:47:14.346Z,81.27
2019-05-09T13:49:48.464Z,81.12
2019-05-09T13:52:27.656Z,81.31
2019-05-09T13:55:01.909Z,79.13
2019-05-09T13:57:34.868Z,78.63
2019-05-09T14:00:08.741Z,79.99
2019-05-09T14:02:44.948Z,78.43
2019-05-09T14:05:18.616Z,78.49
2019-05-09T14:07:54.838Z,76.58
2019-05-09T14:10:25.416Z,77.04
2019-05-09T14:13:08.996Z,78.55
2019-05-09T14:15:34.544Z,79.94
2019-05-09T14:18:05.339Z,80.65
2019-05-09T14:20:38.238Z,86.18
2019-05-09T14:23:11.804Z,91.35
2019-05-09T14:25:48.457Z,93.79
2019-05-09T14:28:18.761Z,95.15
2019-05-09T14:30:51.152Z,95.46
2019-05-09T14:33:23.290Z,97.27
2019-05-09T14:35:55.883Z,97.77
2019-05-09T14:38:28.228Z,96.12
2019-05-09T14:41:01.844Z,100.00
2019-05-09T14:43:39.224Z,99.02
2019-05-09T14:46:11.289Z,100.00
2019-05-09T14:48:45.015Z,99.12
2019-05-09T14:51:18.663Z,100.00
2019-05-09T14:53:51.910Z,100.00
2019-05-09T14:56:23.017Z,100.00
2019-05-09T14:58:57.726Z,100.00
2019-05-09T15:01:30.206Z,100.00
2019-05-09T15:04:00.977Z,100.00
2019-05-09T15:06:33.961Z,100.00
2019-05-09T15:09:08.945Z,100.00
2019-05-09T15:11:41.879Z,100.00
2019-05-09T15:14:13.040Z,100.00
2019-05-09T15:16:45.496Z,100.00
2019-05-09T15:19:18.658Z,100.00
2019-05-09T15:21:52.315Z,100.00
2019-05-09T15:24:24.668Z,100.00
2019-05-09T15:26:58.029Z,100.00
2019-05-09T15:29:30.655Z,100.00
2019-05-09T15:32:06.153Z,100.00
2019-05-09T15:34:38.314Z,100.00
2019-05-09T15:37:11.040Z,100.00
2019-05-09T15:39:44.123Z,100.00
2019-05-09T15:42:18.081Z,100.00
2019-05-09T15:44:49.435Z,100.00
2019-05-09T15:47:29.739Z,100.00
2019-05-09T15:50:15.727Z,100.00
2019-05-09T15:52:38.233Z,100.00
2019-05-09T15:55:11.354Z,100.00
2019-05-09T15:57:43.428Z,100.00
2019-05-09T16:00:18.769Z,100.00
2019-05-09T16:02:50.463Z,100.00
2019-05-09T16:05:23.546Z,100.00
2019-05-09T16:07:54.782Z,100.00
2019-05-09T16:10:28.500Z,100.00
2019-05-09T16:13:01.186Z,100.00
2019-05-09T16:15:40.626Z,100.00
2019-05-09T16:18:18.204Z,100.00
2019-05-09T16:20:52.180Z,100.00
2019-05-09T16:23:29.058Z,100.00
2019-05-09T16:26:07.904Z,100.00
2019-05-09T16:28:42.356Z,100.00
2019-05-09T16:31:16.506Z,100.00
2019-05-09T16:33:49.522Z,100.00
2019-05-09T16:36:22.415Z,100.00
2019-05-09T16:38:58.379Z,100.00
2019-05-09T16:41:31.562Z,100.00
2019-05-09T16:44:04.226Z,100.00
2019-05-09T16:46:37.747Z,100.00
2019-05-09T16:49:12.080Z,100.00
2019-05-09T16:51:45.032Z,100.00
2019-05-09T16:54:25.102Z,100.00
2019-05-09T16:57:00.087Z,100.00
2019-05-09T16:59:33.454Z,100.00
2019-05-09T17:02:18.836Z,100.00
2019-05-09T17:04:50.153Z,100.00
2019-05-09T17:07:23.891Z,100.00
2019-05-09T17:09:57.828Z,100.00
2019-05-09T17:12:30.634Z,100.00
2019-05-09T17:15:04.735Z,100.00
2019-05-09T17:17:38.747Z,100.00
2019-05-09T17:20:13.093Z,100.00
2019-05-09T17:23:13.499Z,100.00
2019-05-09T17:25:38.623Z,100.00
2019-05-09T17:28:12.744Z,100.00
2019-05-09T17:30:48.967Z,100.00
2019-05-09T17:33:20.747Z,100.00
2019-05-09T17:35:53.713Z,100.00
2019-05-09T17:38:27.888Z,100.00
2019-05-09T17:40:59.727Z,100.00
2019-05-09T17:43:32.416Z,100.00
2019-05-09T17:46:07.637Z,100.00
2019-05-09T17:48:40.400Z,100.00
2019-05-09T17:51:14.636Z,100.00
2019-05-09T17:53:51.780Z,100.00
2019-05-09T17:56:40.604Z,100.00
2019-05-09T17:59:14.294Z,100.00
2019-05-09T18:01:48.215Z,100.00
2019-05-09T18:04:22.984Z,100.00
2019-05-09T18:06:58.184Z,100.00
2019-05-09T18:09:29.872Z,100.00
2019-05-09T18:12:03.455Z,100.00
2019-05-09T18:14:38.304Z,100.00
2019-05-09T18:17:12.696Z,100.00
2019-05-09T18:19:46.290Z,100.00
2019-05-09T18:22:19.267Z,100.00
2019-05-09T18:24:53.450Z,100.00
2019-05-09T18:27:27.990Z,100.00
2019-05-09T18:30:01.379Z,100.00
2019-05-09T18:32:40.827Z,100.00
2019-05-09T18:35:19.534Z,100.00
2019-05-09T18:37:54.879Z,100.00
2019-05-09T18:40:28.672Z,100.00
2019-05-09T18:43:01.997Z,100.00
2019-05-09T18:45:33.205Z,100.00
2019-05-09T18:48:05.435Z,100.00
2019-05-09T18:50:38.230Z,100.00
2019-05-09T18:53:10.852Z,100.00
2019-05-09T18:55:43.901Z,100.00
2019-05-09T18:58:14.998Z,100.00
2019-05-09T19:00:47.130Z,100.00
2019-05-09T19:03:24.608Z,100.00
2019-05-09T19:05:57.335Z,100.00
2019-05-09T19:08:30.496Z,100.00
2019-05-09T19:11:02.200Z,100.00
2019-05-09T19:13:58.604Z,100.00
2019-05-09T19:16:43.440Z,100.00
2019-05-09T19:19:35.867Z,100.00
2019-05-09T19:22:21.561Z,100.00
2019-05-09T19:24:46.308Z,100.00
2019-05-09T19:27:19.483Z,100.00
2019-05-09T19:29:52.070Z,100.00
2019-05-09T19:32:25.898Z,100.00
2019-05-09T19:35:01.556Z,100.00
2019-05-09T19:37:36.066Z,100.00
2019-05-09T19:40:09.762Z,100.00
2019-05-09T19:42:46.111Z,100.00
2019-05-09T19:45:20.328Z,100.00
2019-05-09T19:47:54.402Z,100.00
2019-05-09T19:50:28.849Z,100.00
2019-05-09T19:53:01.835Z,100.00
2019-05-09T19:55:34.391Z,100.00
2019-05-09T19:58:07.060Z,100.00
2019-05-09T20:00:39.499Z,100.00
2019-05-09T20:03:11.928Z,100.00
2019-05-09T20:05:44.935Z,100.00
2019-05-09T20:08:17.411Z,100.00
2019-05-09T20:11:23.796Z,100.00
2019-05-09T20:14:21.853Z,100.00
2019-05-09T20:16:56.089Z,100.00
2019-05-09T20:19:28.883Z,100.00
2019-05-09T20:22:11.148Z,100.00
2019-05-09T20:24:43.941Z,100.00
2019-05-09T20:27:17.904Z,100.00
2019-05-09T20:29:58.183Z,100.00
2019-05-09T20:32:31.631Z,100.00
2019-05-09T20:35:05.014Z,100.00
2019-05-09T20:37:38.413Z,100.00
2019-05-09T20:40:09.745Z,100.00
2019-05-09T20:42:42.263Z,100.00
2019-05-09T20:45:16.140Z,100.00
2019-05-09T20:47:51.035Z,100.00
2019-05-09T20:50:25.525Z,100.00
2019-05-09T20:53:09.588Z,100.00
2019-05-09T20:55:35.911Z,100.00
2019-05-09T20:58:07.366Z,100.00
2019-05-09T21:00:43.354Z,100.00
2019-05-09T21:03:17.468Z,100.00
2019-05-09T21:05:53.849Z,100.00
2019-05-09T21:08:29.757Z,100.00
2019-05-09T21:11:05.398Z,100.00
2019-05-09T21:13:48.082Z,100.00
2019-05-09T21:16:13.067Z,100.00
2019-05-09T21:18:48.878Z,100.00
2019-05-09T21:21:21.943Z,100.00
2019-05-09T21:23:54.852Z,100.00
2019-05-09T21:26:27.555Z,100.00
2019-05-09T21:29:00.771Z,100.00
2019-05-09T21:31:34.367Z,100.00
2019-05-09T21:34:07.534Z,100.00
2019-05-09T21:36:41.618Z,100.00
2019-05-09T21:39:14.334Z,100.00
2019-05-09T21:41:46.690Z,100.00
2019-05-09T21:44:21.987Z,100.00
2019-05-09T21:46:54.981Z,100.00
2019-05-09T21:49:27.643Z,100.00
2019-05-09T21:52:00.045Z,100.00
2019-05-09T21:54:32.126Z,100.00
2019-05-09T21:57:05.560Z,100.00
2019-05-09T21:59:38.593Z,100.00
2019-05-09T22:02:11.329Z,100.00
2019-05-09T22:04:43.775Z,100.00
2019-05-09T22:07:17.562Z,100.00
2019-05-09T22:09:50.400Z,100.00
2019-05-09T22:12:22.823Z,100.00
2019-05-09T22:14:55.319Z,100.00
2019-05-09T22:17:46.437Z,100.00
2019-05-09T22:20:20.486Z,100.00
2019-05-09T22:22:53.694Z,100.00
2019-05-09T22:25:26.133Z,100.00
2019-05-09T22:27:58.881Z,100.00
2019-05-09T22:30:31.711Z,100.00
2019-05-09T22:33:04.758Z,100.00
2019-05-09T22:35:37.383Z,100.00
2019-05-09T22:38:10.235Z,100.00
2019-05-09T22:40:44.704Z,100.00
2019-05-09T22:43:17.839Z,100.00
2019-05-09T22:45:50.354Z,100.00
2019-05-09T22:48:23.218Z,100.00
2019-05-09T22:50:56.166Z,100.00
2019-05-09T22:53:28.438Z,100.00
2019-05-09T22:56:01.280Z,100.00
2019-05-09T22:58:35.214Z,100.00
2019-05-09T23:01:07.954Z,100.00
2019-05-09T23:03:41.479Z,100.00
2019-05-09T23:06:14.151Z,100.00
2019-05-09T23:08:47.164Z,100.00
2019-05-09T23:11:20.694Z,100.00
2019-05-09T23:13:54.799Z,100.00
2019-05-09T23:16:29.741Z,100.00
2019-05-09T23:19:02.964Z,100.00
2019-05-09T23:21:36.103Z,100.00
2019-05-09T23:24:10.396Z,100.00
2019-05-09T23:26:43.528Z,100.00
2019-05-09T23:29:16.108Z,100.00
2019-05-09T23:32:06.658Z,100.00
2019-05-09T23:34:39.907Z,100.00
2019-05-09T23:37:12.087Z,100.00
2019-05-09T23:39:46.235Z,100.00
2019-05-09T23:42:19.435Z,100.00
2019-05-09T23:44:52.263Z,100.00
2019-05-09T23:47:24.770Z,100.00
2019-05-09T23:49:57.873Z,100.00
2019-05-09T23:52:29.584Z,100.00
2019-05-09T23:55:20.297Z,100.00
2019-05-09T23:58:10.641Z,100.00
